This is the latest recevied weather packets stored in our database for station/object LRCT. If no packets are shown the sender has not sent any weather packets the latest 10 day(s).
| Time | Temp. | Humidity | Pressure | Rain* | Wind** | Luminosity | Snow |
|---|---|---|---|---|---|---|---|
| 1787977137 | 11.11° C | 88% | 1019 hPa | - | - | - | - |
| 1787976237 | 11.11° C | 88% | 1019 hPa | - | - | - | - |
| 1787975365 | 8.89° C | 87% | 1019 hPa | - | - | - | - |
| 1787974437 | 8.89° C | 87% | 1019 hPa | - | - | - | - |
| 1787973537 | 8.89° C | 87% | 1019 hPa | - | - | - | - |
| 1787972638 | 8.89° C | 87% | 1019 hPa | - | - | - | - |
| 1787971734 | 11.11° C | 88% | 1020 hPa | - | - | - | - |
| 1787970839 | 11.11° C | 88% | 1020 hPa | - | - | - | - |
| 1787968137 | 11.11° C | 88% | 1020 hPa | - | - | - | - |
| 1787967236 | 11.11° C | 88% | 1020 hPa | - | - | - | - |
| 1787966357 | 11.11° C | 88% | 1020 hPa | - | - | - | - |
| 1787965445 | 11.11° C | 88% | 1020 hPa | - | - | - | - |
| 1787964546 | 11.11° C | 88% | 1020 hPa | - | - | - | - |
| 1787963636 | 12.22° C | 82% | 1020 hPa | - | - | - | - |
| 1787962737 | 12.22° C | 82% | 1020 hPa | - | - | - | - |
| 1787956437 | 16.11° C | 63% | 1021 hPa | - | - | - | - |
| 1787955538 | 16.11° C | 63% | 1021 hPa | - | - | - | - |
| 1787954637 | 16.11° C | 63% | 1021 hPa | - | - | - | - |
| 1787953737 | 16.11° C | 63% | 1021 hPa | - | - | - | - |
| 1787952837 | 16.11° C | 63% | 1021 hPa | - | - | - | - |
| 1787951937 | 16.11° C | 63% | 1021 hPa | - | - | - | - |
| 1787951038 | 16.11° C | 63% | 1021 hPa | - | - | - | - |
| 1787947437 | 17.22° C | 59% | 1020 hPa | - | - | - | - |
| 1787946537 | 17.78° C | 52% | 1020 hPa | - | - | - | - |
| 1787945637 | 17.78° C | 52% | 1020 hPa | - | - | - | - |
* Rain since midnight (hover to see other rain measurements)
** Current wind speed in m/s (hover to see current wind gust speed)